createdAt,value
2022-12-11T00:00:12.466Z,81.28
2022-12-11T00:02:40.147Z,89.55
2022-12-11T00:05:08.824Z,64.88
2022-12-11T00:07:36.775Z,72.88
2022-12-11T00:10:05.939Z,87.35
2022-12-11T00:12:33.673Z,95.97
2022-12-11T00:15:02.677Z,84.43
2022-12-11T00:17:30.347Z,85.43
2022-12-11T00:19:58.048Z,69.95
2022-12-11T00:22:25.673Z,86.40
2022-12-11T00:24:53.380Z,70.93
2022-12-11T00:27:21.021Z,77.43
2022-12-11T00:29:48.699Z,101.93
2022-12-11T00:32:17.773Z,91.22
2022-12-11T00:34:45.383Z,71.03
2022-12-11T00:37:13.108Z,62.67
2022-12-11T00:39:40.795Z,73.25
2022-12-11T00:42:08.983Z,76.38
2022-12-11T00:44:37.133Z,87.93
2022-12-11T00:47:05.287Z,74.60
2022-12-11T00:49:34.266Z,107.38
2022-12-11T00:52:01.888Z,99.07
2022-12-11T00:54:29.463Z,103.97
2022-12-11T00:56:57.235Z,71.63
2022-12-11T00:59:24.819Z,84.93
2022-12-11T01:01:52.580Z,83.43
2022-12-11T01:04:20.140Z,100.50
2022-12-11T01:06:49.099Z,87.20
2022-12-11T01:09:34.148Z,130.45
2022-12-11T01:12:01.763Z,95.53
2022-12-11T01:14:29.354Z,78.40
2022-12-11T01:16:57.476Z,116.72
2022-12-11T01:19:25.126Z,105.00
2022-12-11T01:21:54.100Z,101.88
2022-12-11T01:24:21.712Z,115.93
2022-12-11T01:26:49.335Z,97.93
2022-12-11T01:29:16.974Z,108.38
2022-12-11T01:31:44.624Z,116.32
2022-12-11T01:34:12.321Z,136.35
2022-12-11T01:36:40.030Z,157.90
2022-12-11T01:39:09.083Z,118.90
2022-12-11T01:41:36.745Z,174.63
2022-12-11T01:44:07.731Z,144.18
2022-12-11T01:46:37.857Z,131.48
2022-12-11T01:49:08.791Z,151.93
2022-12-11T01:51:41.285Z,163.85
2022-12-11T01:54:13.830Z,129.68
2022-12-11T01:56:44.930Z,155.02
2022-12-11T01:59:14.851Z,135.80
2022-12-11T02:01:46.016Z,118.50
2022-12-11T02:04:16.230Z,133.40
2022-12-11T02:06:46.648Z,137.85
2022-12-11T02:09:18.164Z,152.82
2022-12-11T02:11:56.430Z,147.40
2022-12-11T02:14:31.262Z,138.75
2022-12-11T02:17:05.466Z,119.57
2022-12-11T02:19:49.405Z,121.32
2022-12-11T02:22:28.558Z,111.85
2022-12-11T02:25:10.752Z,127.82
2022-12-11T02:27:45.338Z,136.88
2022-12-11T02:30:17.016Z,114.63
2022-12-11T02:32:48.687Z,113.00
2022-12-11T02:35:21.389Z,105.55
2022-12-11T02:37:52.799Z,116.00
2022-12-11T02:40:26.030Z,129.20
2022-12-11T02:42:56.026Z,129.27
2022-12-11T02:45:27.372Z,125.07
2022-12-11T02:47:59.750Z,115.57
2022-12-11T02:50:28.619Z,171.77
2022-12-11T02:52:58.350Z,136.57
2022-12-11T02:55:28.790Z,148.63
2022-12-11T02:58:03.445Z,150.77
2022-12-11T03:00:32.953Z,115.80
2022-12-11T03:03:00.661Z,116.80
2022-12-11T03:05:28.558Z,122.95
2022-12-11T03:07:56.385Z,124.75
2022-12-11T03:10:24.629Z,149.65
2022-12-11T03:12:56.275Z,122.57
2022-12-11T03:15:34.286Z,107.28
2022-12-11T03:18:10.488Z,125.47
2022-12-11T03:20:42.033Z,94.82
2022-12-11T03:23:18.911Z,100.00
2022-12-11T03:25:55.449Z,85.15
2022-12-11T03:28:30.246Z,95.47
2022-12-11T03:30:59.269Z,108.97
2022-12-11T03:33:33.200Z,85.68
2022-12-11T03:36:04.925Z,116.57
2022-12-11T03:38:37.370Z,85.15
2022-12-11T03:41:08.105Z,105.80
2022-12-11T03:43:37.414Z,86.93
2022-12-11T03:46:06.136Z,101.63
2022-12-11T03:48:39.470Z,93.53
2022-12-11T03:51:08.336Z,87.88
2022-12-11T03:53:37.954Z,93.82
2022-12-11T03:56:09.571Z,87.25
2022-12-11T03:58:37.363Z,77.95
2022-12-11T04:01:05.355Z,81.47
2022-12-11T04:03:33.012Z,116.18
2022-12-11T04:06:02.028Z,101.97
2022-12-11T04:08:29.761Z,102.90
2022-12-11T04:11:11.409Z,85.72
2022-12-11T04:13:40.082Z,92.57
2022-12-11T04:16:08.133Z,87.20
2022-12-11T04:18:53.267Z,74.47
2022-12-11T04:21:40.013Z,79.85
2022-12-11T04:24:17.395Z,67.47
2022-12-11T04:26:45.929Z,94.93
2022-12-11T04:29:14.236Z,72.53
2022-12-11T04:31:42.155Z,77.18
2022-12-11T04:34:10.056Z,85.82
2022-12-11T04:36:39.334Z,73.82
2022-12-11T04:39:07.317Z,78.90
2022-12-11T04:41:37.075Z,75.70
2022-12-11T04:44:05.069Z,89.75
2022-12-11T04:46:33.181Z,75.35
2022-12-11T04:49:01.168Z,60.25
2022-12-11T04:51:29.704Z,75.93
2022-12-11T04:53:59.419Z,84.80
2022-12-11T04:56:27.065Z,82.80
2022-12-11T04:58:54.704Z,79.10
2022-12-11T05:01:23.980Z,77.05
2022-12-11T05:03:51.911Z,60.50
2022-12-11T05:06:19.590Z,69.53
2022-12-11T05:08:47.423Z,67.60
2022-12-11T05:11:17.444Z,63.50
2022-12-11T05:13:45.830Z,61.92
2022-12-11T05:16:16.012Z,58.70
2022-12-11T05:18:44.071Z,67.43
2022-12-11T05:21:13.930Z,59.63
2022-12-11T05:23:41.697Z,57.50
2022-12-11T05:26:12.366Z,63.85
2022-12-11T05:28:41.666Z,51.42
2022-12-11T05:31:14.049Z,59.05
2022-12-11T05:33:41.738Z,56.90
2022-12-11T05:36:10.180Z,49.13
2022-12-11T05:38:38.021Z,45.72
2022-12-11T05:41:07.712Z,52.47
2022-12-11T05:43:37.604Z,51.83
2022-12-11T05:46:11.538Z,48.67
2022-12-11T05:48:39.802Z,53.63
2022-12-11T05:51:09.363Z,52.72
2022-12-11T05:53:37.968Z,44.67
2022-12-11T05:56:08.167Z,47.33
2022-12-11T05:58:36.233Z,55.83
2022-12-11T06:01:08.114Z,45.30
2022-12-11T06:03:37.150Z,48.38
2022-12-11T06:06:06.570Z,50.28
2022-12-11T06:08:35.034Z,46.53
2022-12-11T06:11:05.071Z,54.28
2022-12-11T06:13:33.024Z,49.33
2022-12-11T06:16:04.731Z,51.13
2022-12-11T06:18:33.080Z,42.60
2022-12-11T06:21:02.095Z,54.15
2022-12-11T06:23:29.794Z,44.08
2022-12-11T06:25:57.451Z,50.78
2022-12-11T06:28:25.093Z,50.58
2022-12-11T06:30:52.787Z,39.67
2022-12-11T06:33:20.442Z,45.65
2022-12-11T06:35:48.075Z,48.53
2022-12-11T06:38:17.338Z,49.92
2022-12-11T06:40:45.091Z,50.83
2022-12-11T06:43:12.698Z,49.25
2022-12-11T06:45:40.429Z,64.43
2022-12-11T06:48:08.112Z,47.80
2022-12-11T06:50:35.847Z,51.95
2022-12-11T06:53:03.518Z,43.28
2022-12-11T06:55:35.462Z,56.92
2022-12-11T06:58:03.140Z,44.28
2022-12-11T07:00:31.123Z,52.22
2022-12-11T07:02:58.906Z,44.53
2022-12-11T07:05:26.565Z,47.85
2022-12-11T07:07:54.940Z,49.45
2022-12-11T07:10:23.100Z,47.30
2022-12-11T07:12:53.858Z,41.88
2022-12-11T07:15:21.672Z,48.38
2022-12-11T07:17:49.362Z,45.83
2022-12-11T07:20:17.607Z,61.10
2022-12-11T07:22:46.792Z,50.22
2022-12-11T07:25:14.727Z,53.42
2022-12-11T07:27:42.786Z,60.22
2022-12-11T07:30:13.351Z,52.95
2022-12-11T07:32:41.064Z,56.38
2022-12-11T07:35:09.992Z,50.58
2022-12-11T07:37:38.129Z,59.13
2022-12-11T07:40:06.794Z,64.13
2022-12-11T07:42:34.442Z,53.28
2022-12-11T07:45:02.835Z,42.85
2022-12-11T07:47:31.859Z,59.88
2022-12-11T07:49:59.544Z,59.15
2022-12-11T07:52:27.233Z,53.67
2022-12-11T07:54:54.856Z,51.05
2022-12-11T07:57:22.513Z,62.90
2022-12-11T07:59:50.293Z,59.92
2022-12-11T08:02:18.095Z,58.08
2022-12-11T08:04:47.155Z,53.58
2022-12-11T08:07:14.951Z,54.38
2022-12-11T08:09:42.577Z,49.30
2022-12-11T08:12:10.196Z,49.30
2022-12-11T08:14:38.574Z,53.50
2022-12-11T08:17:06.194Z,51.05
2022-12-11T08:19:34.021Z,59.38
2022-12-11T08:22:02.968Z,60.38
2022-12-11T08:24:30.598Z,53.75
2022-12-11T08:26:58.257Z,62.35
2022-12-11T08:29:26.004Z,60.10
2022-12-11T08:31:53.633Z,57.90
2022-12-11T08:34:21.249Z,65.38
2022-12-11T08:36:49.052Z,68.57
2022-12-11T08:39:18.032Z,54.55
2022-12-11T08:41:45.667Z,54.05
2022-12-11T08:44:16.718Z,58.08
2022-12-11T08:46:44.718Z,51.03
2022-12-11T08:49:12.456Z,54.47
2022-12-11T08:51:40.176Z,55.78
2022-12-11T08:54:07.853Z,54.60
2022-12-11T08:56:37.007Z,50.38
2022-12-11T08:59:06.174Z,47.88
2022-12-11T09:01:34.237Z,48.60
2022-12-11T09:04:01.959Z,51.47
2022-12-11T09:06:30.895Z,51.05
2022-12-11T09:09:00.983Z,54.05
2022-12-11T09:11:31.090Z,55.40
2022-12-11T09:14:06.882Z,51.88
2022-12-11T09:16:37.612Z,49.25
2022-12-11T09:19:05.499Z,47.70
2022-12-11T09:21:33.291Z,52.67
2022-12-11T09:24:02.223Z,59.13
2022-12-11T09:26:31.315Z,46.75
2022-12-11T09:29:00.482Z,47.00
2022-12-11T09:31:30.201Z,47.45
2022-12-11T09:34:02.887Z,51.08
2022-12-11T09:36:30.629Z,40.75
2022-12-11T09:39:01.499Z,54.40
2022-12-11T09:41:38.653Z,53.72
2022-12-11T09:44:33.785Z,53.97
2022-12-11T09:47:02.136Z,55.63
2022-12-11T09:49:36.435Z,49.30
2022-12-11T09:52:13.720Z,48.13
2022-12-11T09:54:46.206Z,44.47
2022-12-11T09:57:26.443Z,52.20
2022-12-11T10:00:08.322Z,57.22
2022-12-11T10:02:47.374Z,50.97
2022-12-11T10:05:22.228Z,49.40
2022-12-11T10:07:56.810Z,46.53
2022-12-11T10:10:33.305Z,44.10
2022-12-11T10:13:12.672Z,42.88
2022-12-11T10:15:50.362Z,50.65
2022-12-11T10:18:22.924Z,44.90
2022-12-11T10:20:52.668Z,47.10
2022-12-11T10:23:23.298Z,39.90
2022-12-11T10:25:55.954Z,41.17
2022-12-11T10:28:23.689Z,41.70
2022-12-11T10:31:00.889Z,44.92
2022-12-11T10:33:34.953Z,38.80
2022-12-11T10:36:02.871Z,38.78
2022-12-11T10:38:33.437Z,43.67
2022-12-11T10:41:07.167Z,41.13
2022-12-11T10:43:36.828Z,40.05
2022-12-11T10:46:07.276Z,40.58
2022-12-11T10:48:34.993Z,40.22
2022-12-11T10:51:05.075Z,40.53
2022-12-11T10:53:34.825Z,41.58
2022-12-11T10:56:03.285Z,44.47
2022-12-11T10:58:34.085Z,49.92
2022-12-11T11:01:09.451Z,48.30
2022-12-11T11:03:44.808Z,41.97
2022-12-11T11:06:18.332Z,38.70
2022-12-11T11:08:48.692Z,48.35
2022-12-11T11:11:27.960Z,41.58
2022-12-11T11:14:07.933Z,42.50
2022-12-11T11:16:39.659Z,48.33
2022-12-11T11:19:08.163Z,45.20
2022-12-11T11:21:37.027Z,43.85
2022-12-11T11:24:05.170Z,45.50
2022-12-11T11:27:11.189Z,49.03
2022-12-11T11:29:28.711Z,38.08
2022-12-11T11:31:57.991Z,40.80
2022-12-11T11:34:26.157Z,48.92
2022-12-11T11:36:59.642Z,39.22
2022-12-11T11:39:32.121Z,44.38
2022-12-11T11:42:05.511Z,50.58
2022-12-11T11:44:37.911Z,47.25
2022-12-11T11:47:15.754Z,46.10
2022-12-11T11:49:51.791Z,45.90
2022-12-11T11:52:26.278Z,47.28
2022-12-11T11:55:03.799Z,49.63
2022-12-11T11:57:38.200Z,46.65
2022-12-11T12:00:11.385Z,47.50
2022-12-11T12:02:43.655Z,41.60
2022-12-11T12:05:13.758Z,38.67
2022-12-11T12:07:52.688Z,33.13
2022-12-11T12:10:26.994Z,39.15
2022-12-11T12:13:01.985Z,40.20
2022-12-11T12:15:39.297Z,44.15
2022-12-11T12:18:16.470Z,42.30
2022-12-11T12:20:53.339Z,36.40
2022-12-11T12:23:36.948Z,39.80
2022-12-11T12:26:12.828Z,39.75
2022-12-11T12:28:48.965Z,36.25
2022-12-11T12:31:35.764Z,35.33
2022-12-11T12:34:15.977Z,39.47
2022-12-11T12:36:50.884Z,35.03
2022-12-11T12:39:27.491Z,38.30
2022-12-11T12:42:07.334Z,35.90
2022-12-11T12:44:43.375Z,41.72
2022-12-11T12:47:15.310Z,44.60
2022-12-11T12:49:47.306Z,42.65
2022-12-11T12:52:18.926Z,38.97
2022-12-11T12:55:03.632Z,37.47
2022-12-11T12:57:31.883Z,38.50
2022-12-11T12:59:59.628Z,47.67
2022-12-11T13:02:27.637Z,35.38
2022-12-11T13:05:07.391Z,40.10
2022-12-11T13:07:35.168Z,33.70
2022-12-11T13:10:07.176Z,40.08
2022-12-11T13:12:43.904Z,32.78
2022-12-11T13:15:36.945Z,35.70
2022-12-11T13:18:34.000Z,32.97
2022-12-11T13:21:03.844Z,30.92
2022-12-11T13:23:33.787Z,32.28
2022-12-11T13:26:03.313Z,34.45
2022-12-11T13:28:34.835Z,32.55
2022-12-11T13:31:28.655Z,35.58
2022-12-11T13:33:59.390Z,38.50
2022-12-11T13:36:31.302Z,41.35
2022-12-11T13:39:03.195Z,34.75
2022-12-11T13:41:33.110Z,37.22
2022-12-11T13:44:01.226Z,38.10
2022-12-11T13:46:32.338Z,33.75
2022-12-11T13:49:04.890Z,37.60
2022-12-11T13:51:36.998Z,37.08
2022-12-11T13:54:17.038Z,37.97
2022-12-11T13:56:58.345Z,33.10
2022-12-11T13:59:29.005Z,31.90
2022-12-11T14:02:04.908Z,32.03
2022-12-11T14:04:35.328Z,32.78
2022-12-11T14:07:07.885Z,34.35
2022-12-11T14:09:38.931Z,29.65
2022-12-11T14:12:07.206Z,33.97
2022-12-11T14:14:41.877Z,26.95
2022-12-11T14:17:14.635Z,31.75
2022-12-11T14:19:47.921Z,36.08
2022-12-11T14:22:21.049Z,32.33
2022-12-11T14:24:54.387Z,33.55
2022-12-11T14:27:22.868Z,30.83
2022-12-11T14:29:50.838Z,29.40
2022-12-11T14:32:24.743Z,35.70
2022-12-11T14:34:55.285Z,38.95
2022-12-11T14:37:25.099Z,41.72
2022-12-11T14:39:59.762Z,35.78
2022-12-11T14:42:32.261Z,32.75
2022-12-11T14:45:07.154Z,29.85
2022-12-11T14:47:40.257Z,32.70
2022-12-11T14:50:18.946Z,33.47
2022-12-11T14:52:50.284Z,33.47
2022-12-11T14:55:22.862Z,32.83
2022-12-11T14:57:55.173Z,34.28
2022-12-11T15:00:25.551Z,30.98
2022-12-11T15:03:01.645Z,29.92
2022-12-11T15:05:37.115Z,33.47
2022-12-11T15:08:24.599Z,38.60
2022-12-11T15:11:03.089Z,36.25
2022-12-11T15:13:31.338Z,37.35
2022-12-11T15:16:00.225Z,33.88
2022-12-11T15:18:32.078Z,31.10
2022-12-11T15:21:04.024Z,40.88
2022-12-11T15:23:31.741Z,42.22
2022-12-11T15:26:02.702Z,44.08
2022-12-11T15:28:34.141Z,36.92
2022-12-11T15:31:05.253Z,44.35
2022-12-11T15:33:34.751Z,34.45
2022-12-11T15:36:07.696Z,40.20
2022-12-11T15:38:39.471Z,41.85
2022-12-11T15:41:07.976Z,41.33
2022-12-11T15:43:38.609Z,47.10
2022-12-11T15:46:07.100Z,37.83
2022-12-11T15:48:35.078Z,40.40
2022-12-11T15:51:04.756Z,36.65
2022-12-11T15:53:32.549Z,35.97
2022-12-11T15:56:00.447Z,37.38
2022-12-11T15:58:28.883Z,41.17
2022-12-11T16:00:57.704Z,41.83
2022-12-11T16:03:26.403Z,33.85
2022-12-11T16:05:54.478Z,39.85
2022-12-11T16:08:24.747Z,38.28
2022-12-11T16:10:54.007Z,38.42
2022-12-11T16:13:22.435Z,45.92
2022-12-11T16:15:51.865Z,43.10
2022-12-11T16:18:22.094Z,44.90
2022-12-11T16:20:50.486Z,45.45
2022-12-11T16:23:19.111Z,40.33
2022-12-11T16:25:48.624Z,37.53
2022-12-11T16:28:18.580Z,39.00
2022-12-11T16:30:46.273Z,44.90
2022-12-11T16:33:14.686Z,44.28
2022-12-11T16:35:43.154Z,42.40
2022-12-11T16:38:11.311Z,42.78
2022-12-11T16:40:39.171Z,40.17
2022-12-11T16:43:08.283Z,48.92
2022-12-11T16:45:36.383Z,51.42
2022-12-11T16:48:05.313Z,46.45
2022-12-11T16:50:33.188Z,42.25
2022-12-11T16:53:00.895Z,46.30
2022-12-11T16:55:28.587Z,53.58
2022-12-11T16:57:56.245Z,50.65
2022-12-11T17:00:25.625Z,46.80
2022-12-11T17:02:53.408Z,48.10
2022-12-11T17:05:22.567Z,40.92
2022-12-11T17:07:50.564Z,51.10
2022-12-11T17:10:18.281Z,48.70
2022-12-11T17:12:45.974Z,46.53
2022-12-11T17:15:13.820Z,48.92
2022-12-11T17:17:43.184Z,53.50
2022-12-11T17:20:11.646Z,42.42
2022-12-11T17:22:39.953Z,54.33
2022-12-11T17:25:08.705Z,48.92
2022-12-11T17:27:36.382Z,46.65
2022-12-11T17:30:04.361Z,44.40
2022-12-11T17:32:32.013Z,59.88
2022-12-11T17:35:01.574Z,52.45
2022-12-11T17:37:29.263Z,49.80
2022-12-11T17:39:56.859Z,49.15
2022-12-11T17:42:26.843Z,50.47
2022-12-11T17:44:54.532Z,50.60
2022-12-11T17:47:22.244Z,49.42
2022-12-11T17:49:49.875Z,50.35
2022-12-11T17:52:19.167Z,49.40
2022-12-11T17:54:47.048Z,49.45
2022-12-11T17:57:14.647Z,39.13
2022-12-11T17:59:42.288Z,50.83
2022-12-11T18:02:10.489Z,46.70
2022-12-11T18:04:39.406Z,51.40
2022-12-11T18:07:07.278Z,53.80
2022-12-11T18:09:36.272Z,53.33
2022-12-11T18:12:03.986Z,52.75
2022-12-11T18:14:31.683Z,56.97
2022-12-11T18:16:59.645Z,61.13
2022-12-11T18:19:27.398Z,52.53
2022-12-11T18:21:55.685Z,63.83
2022-12-11T18:24:25.750Z,49.97
2022-12-11T18:26:54.761Z,58.35
2022-12-11T18:29:22.403Z,50.85
2022-12-11T18:31:50.101Z,56.05
2022-12-11T18:34:17.725Z,52.53
2022-12-11T18:36:47.098Z,51.22
2022-12-11T18:39:15.097Z,57.13
2022-12-11T18:41:42.780Z,58.70
2022-12-11T18:44:11.871Z,60.03
2022-12-11T18:46:39.871Z,58.90
2022-12-11T18:49:07.546Z,53.13
2022-12-11T18:51:35.848Z,60.10
2022-12-11T18:54:03.491Z,55.33
2022-12-11T18:56:31.167Z,52.45
2022-12-11T18:58:58.890Z,54.20
2022-12-11T19:01:30.025Z,58.10
2022-12-11T19:04:03.504Z,50.47
2022-12-11T19:06:35.412Z,56.15
2022-12-11T19:09:05.193Z,47.58
2022-12-11T19:11:34.206Z,54.85
2022-12-11T19:14:02.013Z,59.30
2022-12-11T19:16:33.687Z,62.50
2022-12-11T19:19:06.751Z,58.53
2022-12-11T19:21:35.328Z,50.28
2022-12-11T19:24:02.975Z,51.55
2022-12-11T19:26:31.398Z,57.90
2022-12-11T19:29:00.125Z,52.92
2022-12-11T19:31:29.575Z,57.30
2022-12-11T19:33:58.803Z,54.78
2022-12-11T19:36:28.841Z,58.42
2022-12-11T19:39:01.515Z,57.85
2022-12-11T19:41:30.768Z,49.45
2022-12-11T19:43:59.305Z,60.47
2022-12-11T19:46:27.770Z,55.17
2022-12-11T19:48:58.302Z,51.17
2022-12-11T19:51:28.233Z,49.42
2022-12-11T19:53:56.418Z,60.05
2022-12-11T19:56:24.390Z,55.70
2022-12-11T19:58:52.121Z,52.03
2022-12-11T20:01:24.682Z,62.58
2022-12-11T20:03:52.487Z,60.90
2022-12-11T20:06:22.042Z,64.28
2022-12-11T20:08:50.138Z,61.42
2022-12-11T20:11:19.233Z,63.85
2022-12-11T20:13:47.382Z,58.05
2022-12-11T20:16:16.251Z,57.92
2022-12-11T20:18:44.018Z,61.10
2022-12-11T20:21:14.530Z,63.75
2022-12-11T20:23:44.389Z,57.00
2022-12-11T20:26:14.402Z,68.75
2022-12-11T20:28:44.814Z,59.03
2022-12-11T20:31:19.704Z,65.65
2022-12-11T20:33:48.598Z,57.22
2022-12-11T20:36:17.839Z,60.10
2022-12-11T20:38:46.968Z,61.83
2022-12-11T20:41:16.603Z,54.17
2022-12-11T20:43:45.028Z,56.97
2022-12-11T20:46:14.782Z,73.25
2022-12-11T20:48:45.035Z,56.28
2022-12-11T20:51:18.547Z,54.80
2022-12-11T20:53:57.346Z,55.40
2022-12-11T20:56:26.893Z,68.35
2022-12-11T20:58:55.553Z,67.28
2022-12-11T21:01:25.626Z,59.92
2022-12-11T21:03:53.641Z,70.18
2022-12-11T21:06:23.615Z,54.70
2022-12-11T21:08:52.920Z,59.97
2022-12-11T21:11:20.811Z,64.88
2022-12-11T21:13:51.214Z,61.50
2022-12-11T21:16:20.171Z,63.92
2022-12-11T21:18:48.275Z,63.90
2022-12-11T21:21:16.969Z,58.28
2022-12-11T21:23:44.915Z,54.47
2022-12-11T21:26:14.643Z,58.90
2022-12-11T21:28:42.645Z,56.28
2022-12-11T21:31:13.943Z,58.05
2022-12-11T21:33:41.689Z,57.05
2022-12-11T21:36:12.382Z,59.83
2022-12-11T21:38:40.930Z,61.47
2022-12-11T21:41:10.463Z,59.65
2022-12-11T21:43:52.579Z,61.70
2022-12-11T21:46:29.208Z,54.88
2022-12-11T21:48:57.178Z,59.40
2022-12-11T21:51:31.075Z,54.75
2022-12-11T21:54:04.025Z,54.25
2022-12-11T21:56:32.164Z,53.92
2022-12-11T21:59:01.498Z,60.10
2022-12-11T22:01:33.487Z,66.75
2022-12-11T22:04:01.546Z,65.30
2022-12-11T22:06:29.218Z,57.05
2022-12-11T22:08:57.169Z,57.95
2022-12-11T22:11:27.412Z,60.15
2022-12-11T22:13:55.310Z,57.75
2022-12-11T22:16:24.957Z,61.42
2022-12-11T22:18:53.581Z,56.30
2022-12-11T22:21:21.498Z,55.53
2022-12-11T22:23:49.278Z,53.95
2022-12-11T22:26:19.111Z,56.17
2022-12-11T22:28:47.083Z,60.60
2022-12-11T22:31:17.222Z,54.78
2022-12-11T22:33:46.326Z,60.03
2022-12-11T22:36:13.970Z,51.53
2022-12-11T22:38:41.671Z,59.80
2022-12-11T22:41:17.487Z,56.10
2022-12-11T22:43:48.127Z,56.88
2022-12-11T22:46:16.064Z,59.75
2022-12-11T22:48:43.778Z,64.85
2022-12-11T22:51:13.302Z,55.85
2022-12-11T22:53:40.987Z,58.58
2022-12-11T22:56:10.719Z,54.22
2022-12-11T22:58:38.374Z,66.95
2022-12-11T23:01:10.597Z,59.05
2022-12-11T23:03:38.344Z,57.70
2022-12-11T23:06:08.253Z,55.42
2022-12-11T23:08:37.502Z,62.38
2022-12-11T23:11:11.910Z,54.58
2022-12-11T23:13:40.579Z,62.70
2022-12-11T23:16:09.270Z,60.40
2022-12-11T23:18:37.085Z,62.53
2022-12-11T23:21:05.483Z,60.40
2022-12-11T23:23:33.254Z,66.68
2022-12-11T23:26:03.197Z,61.80
2022-12-11T23:28:30.911Z,62.17
2022-12-11T23:30:58.879Z,62.40
2022-12-11T23:33:26.889Z,68.35
2022-12-11T23:35:55.149Z,62.50
2022-12-11T23:38:22.771Z,58.78
2022-12-11T23:40:50.610Z,59.50
2022-12-11T23:43:19.598Z,64.68
2022-12-11T23:45:47.624Z,65.65
2022-12-11T23:48:15.320Z,59.17
2022-12-11T23:50:44.048Z,70.20
2022-12-11T23:53:12.453Z,53.63
2022-12-11T23:55:41.052Z,49.55
2022-12-11T23:58:08.834Z,52.13
